Time;durP1;ratioP1;P1;durP2;ratioP2;P2;SDS_P1;SDS_P2;PMS_P1;PMS_P2;Temp;Humidity;BMP_temperature;BMP_pressure;BME280_temperature;BME280_humidity;BME280_pressure;Samples;Min_cycle;Max_cycle;Signal;HPM_P1;HPM_P2
2022/01/22 00:00:44;;;;;;;1.85;1.52;;;;;;;5.18;85.78;103588.88;4997259;28;96801;-36
2022/01/22 00:03:09;;;;;;;3.03;1.27;;;;;;;5.17;85.40;103589.75;4997685;28;97835;-36
2022/01/22 00:05:35;;;;;;;5.88;1.85;;;;;;;5.08;85.59;103561.06;4997698;28;97339;-36
2022/01/22 00:08:00;;;;;;;4.40;1.77;;;;;;;5.06;85.92;103557.47;4997951;28;96627;-36
2022/01/22 00:10:26;;;;;;;1.20;1.10;;;;;;;5.20;85.91;103586.22;4998344;28;96727;-36
2022/01/22 00:15:28;;;;;;;2.75;1.08;;;;;;;5.16;86.00;103579.91;4995228;28;97729;-36
2022/01/22 00:17:54;;;;;;;3.25;1.65;;;;;;;5.07;85.94;103548.50;4995843;28;96570;-36
2022/01/22 00:20:22;;;;;;;3.22;1.33;;;;;;;5.21;85.67;103572.75;4997749;28;96778;-36
2022/01/22 00:22:48;;;;;;;4.43;1.70;;;;;;;5.09;85.87;103546.72;4995950;28;100855;-36
2022/01/22 00:25:15;;;;;;;2.08;1.15;;;;;;;5.13;85.75;103550.34;4995823;28;100645;-36
2022/01/22 00:27:44;;;;;;;5.18;2.45;;;;;;;5.11;85.53;103534.22;4996175;28;96452;-36
2022/01/22 00:30:12;;;;;;;1.73;1.20;;;;;;;5.11;86.01;103536.91;4995934;28;96895;-36
2022/01/22 00:32:38;;;;;;;8.70;1.75;;;;;;;5.12;86.13;103537.78;4995497;28;103358;-36
2022/01/22 00:35:05;;;;;;;3.33;1.00;;;;;;;5.25;85.80;103554.88;4997447;28;97868;-36
2022/01/22 00:37:30;;;;;;;5.05;1.23;;;;;;;5.18;86.32;103545.00;4997485;28;96635;-36
2022/01/22 00:39:56;;;;;;;3.47;1.75;;;;;;;5.11;86.13;103525.25;4997394;28;96771;-36
2022/01/22 00:42:22;;;;;;;3.97;1.40;;;;;;;5.23;85.96;103554.84;4996613;28;97867;-36
2022/01/22 00:44:51;;;;;;;1.35;1.17;;;;;;;5.11;86.30;103522.56;4996863;28;97959;-36
2022/01/22 00:47:17;;;;;;;4.63;1.50;;;;;;;5.15;86.33;103524.38;4995785;28;97709;-36
2022/01/22 00:49:42;;;;;;;1.80;0.88;;;;;;;5.28;85.95;103547.72;4995697;28;96825;-36
2022/01/22 00:52:08;;;;;;;4.60;1.08;;;;;;;5.18;86.15;103528.88;4996953;28;97585;-36
2022/01/22 00:54:34;;;;;;;7.07;1.55;;;;;;;5.19;86.00;103530.66;4996275;28;110101;-36
2022/01/22 00:56:59;;;;;;;1.00;0.90;;;;;;;5.26;86.41;103533.38;4997010;28;96504;-36
2022/01/22 00:59:24;;;;;;;5.78;1.25;;;;;;;5.18;86.39;103515.44;4997219;28;96931;-36
2022/01/22 01:01:50;;;;;;;3.60;1.73;;;;;;;5.21;86.35;103520.81;4995581;28;106376;-36
2022/01/22 01:04:15;;;;;;;2.53;1.17;;;;;;;5.22;86.58;103525.28;4996704;28;97364;-36
2022/01/22 01:06:41;;;;;;;1.50;1.05;;;;;;;5.28;86.54;103538.75;4996419;28;96551;-36
2022/01/22 01:09:08;;;;;;;1.10;0.95;;;;;;;5.14;86.38;103506.44;4996878;28;96742;-36
2022/01/22 01:11:39;;;;;;;3.25;1.58;;;;;;;5.27;86.45;103528.91;4995130;28;99922;-36
2022/01/22 01:14:07;;;;;;;1.70;1.02;;;;;;;5.23;86.57;103513.66;4995085;28;101335;-36
2022/01/22 01:32:55;;;;;;;1.20;0.73;;;;;;;5.43;86.78;103528.06;4995887;28;97063;-36
2022/01/22 01:35:22;;;;;;;1.98;0.80;;;;;;;5.31;86.86;103511.88;4996134;28;99140;-36
2022/01/22 01:37:48;;;;;;;0.90;0.68;;;;;;;5.43;86.64;103536.13;4994973;28;96478;-36
2022/01/22 01:40:18;;;;;;;1.83;1.05;;;;;;;5.45;86.68;103534.34;4995031;28;96775;-36
2022/01/22 01:45:11;;;;;;;1.55;1.00;;;;;;;5.46;86.57;103541.53;4995905;28;97791;-36
2022/01/22 01:47:39;;;;;;;4.97;1.10;;;;;;;5.46;86.88;103543.31;4996422;28;96493;-36
2022/01/22 01:50:05;;;;;;;2.38;1.15;;;;;;;5.46;86.66;103543.31;4996737;28;96721;-36
2022/01/22 01:52:45;;;;;;;0.85;0.80;;;;;;;5.43;86.71;103537.91;4994531;28;101102;-36
2022/01/22 01:55:14;;;;;;;0.90;0.73;;;;;;;5.51;86.82;103553.19;4995767;28;99673;-36
2022/01/22 01:57:41;;;;;;;1.05;0.73;;;;;;;5.44;86.93;103534.34;4993971;28;96633;-36
2022/01/22 02:00:19;;;;;;;1.75;1.05;;;;;;;5.50;87.06;103546.00;4995230;28;96819;-36
2022/01/22 02:02:46;;;;;;;1.20;0.95;;;;;;;5.39;87.00;103536.13;4994203;28;100820;-36
2022/01/22 02:05:12;;;;;;;1.33;0.75;;;;;;;5.43;87.01;103540.59;4994109;28;101264;-36
2022/01/22 02:07:41;;;;;;;2.08;0.90;;;;;;;5.50;87.12;103543.31;4995850;28;96561;-36
2022/01/22 02:10:08;;;;;;;0.68;0.68;;;;;;;5.47;87.10;103540.63;4994523;28;96808;-36
2022/01/22 02:13:01;;;;;;;2.67;1.27;;;;;;;5.52;86.94;103549.59;4994193;28;101155;-36
2022/01/22 02:23:40;;;;;;;1.60;1.00;;;;;;;5.44;87.05;103535.25;4995349;28;97090;-36
2022/01/22 02:26:08;;;;;;;3.72;1.30;;;;;;;5.56;86.98;103553.19;4993855;28;100711;-36
2022/01/22 02:28:34;;;;;;;0.17;0.17;;;;;;;5.54;87.14;103550.50;4994138;28;96530;-36
2022/01/22 02:31:12;;;;;;;1.27;0.70;;;;;;;5.44;87.09;103520.91;4995707;28;96758;-36
2022/01/22 02:33:51;;;;;;;4.38;1.10;;;;;;;5.45;86.80;103520.88;4993897;28;101251;-36
2022/01/22 02:36:25;;;;;;;1.42;0.57;;;;;;;5.58;87.27;103543.34;4995409;28;97893;-36
2022/01/22 02:41:24;;;;;;;1.10;0.60;;;;;;;5.48;87.14;103515.56;4993819;28;96611;-36
2022/01/22 02:43:52;;;;;;;0.60;0.45;;;;;;;5.54;87.25;103526.31;4995043;28;98029;-36
2022/01/22 02:46:20;;;;;;;5.20;1.17;;;;;;;5.46;86.84;103513.75;4993739;28;100889;-36
2022/01/22 02:48:45;;;;;;;9.00;1.20;;;;;;;5.62;87.07;103538.88;4993278;28;96762;-36
2022/01/22 02:51:11;;;;;;;0.30;0.30;;;;;;;5.54;87.21;103525.41;4995148;28;96729;-36
2022/01/22 02:53:36;;;;;;;1.75;0.85;;;;;;;5.52;86.91;103524.50;4995192;28;97949;-36
2022/01/22 02:56:02;;;;;;;0.45;0.45;;;;;;;5.52;86.80;103517.31;4994923;28;97757;-36
2022/01/22 02:58:27;;;;;;;4.22;1.10;;;;;;;5.64;86.90;103537.09;4993507;28;96819;-36
2022/01/22 03:00:53;;;;;;;4.53;0.90;;;;;;;5.55;86.88;103524.50;4994808;28;96843;-36
2022/01/22 03:03:18;;;;;;;0.95;0.50;;;;;;;5.58;87.08;103534.38;4994833;28;97889;-36
2022/01/22 03:05:43;;;;;;;3.60;1.40;;;;;;;5.62;87.06;103533.47;4994628;28;102162;-36
2022/01/22 03:08:10;;;;;;;5.75;0.95;;;;;;;5.66;86.70;103544.25;4994158;28;115061;-36
2022/01/22 03:10:37;;;;;;;6.68;0.70;;;;;;;5.66;87.13;103544.25;4994039;28;96869;-36
2022/01/22 03:15:48;;;;;;;1.88;0.82;;;;;;;5.57;86.94;103528.09;4994618;28;97371;-36
2022/01/22 03:18:35;;;;;;;;;;;;;;;5.69;87.09;103548.75;4995317;28;96836;-36
2022/01/22 03:21:07;;;;;;;5.10;0.45;;;;;;;5.56;86.96;103528.13;4994834;28;96831;-36
2022/01/22 03:29:07;;;;;;;1.73;0.70;;;;;;;5.58;86.95;103529.91;4995176;28;96575;-36
2022/01/22 03:31:33;;;;;;;0.27;0.27;;;;;;;5.57;87.15;103525.41;4995474;28;96539;-36
2022/01/22 03:33:58;;;;;;;1.52;1.00;;;;;;;5.59;87.23;103537.06;4994130;28;99256;-36
2022/01/22 03:36:25;;;;;;;1.67;1.13;;;;;;;5.60;87.25;103535.28;4994289;28;97845;-36
2022/01/22 03:38:50;;;;;;;1.08;0.45;;;;;;;5.60;87.12;103535.28;4994219;28;96536;-36
2022/01/22 03:41:16;;;;;;;1.70;0.73;;;;;;;5.59;87.52;103528.13;4994812;28;96794;-36
2022/01/22 03:43:41;;;;;;;0.98;0.65;;;;;;;5.69;87.32;103543.38;4994280;28;98122;-36
2022/01/22 03:46:07;;;;;;;2.35;1.23;;;;;;;5.74;87.44;103563.09;4994306;28;98278;-36
2022/01/22 03:48:32;;;;;;;11.00;1.45;;;;;;;5.61;87.32;103539.78;4994604;28;96560;-36
2022/01/22 03:50:58;;;;;;;3.53;0.52;;;;;;;5.61;87.33;103529.91;4994421;28;96858;-36
2022/01/22 03:53:23;;;;;;;1.15;0.73;;;;;;;5.65;87.50;103537.09;4994206;28;97899;-36
2022/01/22 03:58:19;;;;;;;0.65;0.63;;;;;;;5.74;87.39;103560.41;4992489;28;96695;-36
2022/01/22 04:00:45;;;;;;;2.08;1.15;;;;;;;5.61;87.28;103532.59;4993186;28;105538;-36
2022/01/22 04:03:28;;;;;;;0.82;0.55;;;;;;;5.56;86.99;103515.56;4993706;28;98398;-36
2022/01/22 04:08:39;;;;;;;3.10;1.05;;;;;;;5.72;87.34;103555.03;4992261;28;96942;-36
2022/01/22 04:11:09;;;;;;;0.63;0.50;;;;;;;5.72;87.35;103548.75;4994479;28;96738;-36
2022/01/22 04:13:35;;;;;;;0.20;0.20;;;;;;;5.67;87.40;103540.69;4993881;28;97892;-36
2022/01/22 04:16:00;;;;;;;1.90;0.63;;;;;;;5.75;87.37;103552.34;4992509;28;100960;-36
2022/01/22 04:29:24;;;;;;;1.13;0.60;;;;;;;5.83;87.20;103568.50;4997206;28;96670;-36
2022/01/22 04:31:50;;;;;;;2.97;0.93;;;;;;;5.70;87.31;103542.50;4997228;28;96853;-36
2022/01/22 04:34:16;;;;;;;1.52;0.35;;;;;;;5.82;87.47;103555.06;4995979;28;98920;-36
2022/01/22 04:36:42;;;;;;;1.65;0.75;;;;;;;5.71;87.28;103534.41;4995660;28;101059;-36
2022/01/22 04:39:07;;;;;;;4.60;0.30;;;;;;;5.71;87.23;103533.50;4997199;28;96491;-36
2022/01/22 04:41:32;;;;;;;0.68;0.55;;;;;;;5.80;87.36;103555.06;4997275;28;96725;-36
2022/01/22 04:44:01;;;;;;;0.52;0.40;;;;;;;5.83;87.22;103563.13;4997224;28;98007;-36
2022/01/22 04:49:11;;;;;;;0.25;0.25;;;;;;;5.84;87.19;103547.88;4996160;28;96572;-36
2022/01/22 04:57:05;;;;;;;0.60;0.55;;;;;;;5.74;87.48;103531.75;4996959;28;96975;-36
2022/01/22 04:59:30;;;;;;;0.40;0.35;;;;;;;5.87;87.38;103548.78;4996852;28;96880;-36
2022/01/22 05:01:56;;;;;;;3.65;0.77;;;;;;;5.75;87.62;103527.25;4996404;28;96808;-36
2022/01/22 05:04:21;;;;;;;0.98;0.38;;;;;;;5.75;87.32;103532.63;4996365;28;99294;-36
2022/01/22 05:06:46;;;;;;;1.38;1.00;;;;;;;5.74;87.62;103528.13;4996587;28;97289;-36
2022/01/22 05:09:12;;;;;;;0.50;0.35;;;;;;;5.88;87.50;103542.50;4997103;28;96589;-36
2022/01/22 05:11:38;;;;;;;0.68;0.50;;;;;;;5.88;87.49;103547.00;4994914;28;115242;-36
2022/01/22 05:14:03;;;;;;;3.33;0.85;;;;;;;5.82;87.29;103533.56;4996715;28;97345;-36
2022/01/22 05:16:29;;;;;;;1.98;0.70;;;;;;;5.63;87.26;103498.56;4996264;28;99379;-36
2022/01/22 05:19:06;;;;;;;1.67;0.82;;;;;;;5.77;87.48;103520.09;4996152;28;96609;-36
2022/01/22 05:21:34;;;;;;;2.53;0.70;;;;;;;5.76;87.43;103520.97;4996833;28;96509;-36
2022/01/22 05:24:04;;;;;;;0.57;0.50;;;;;;;5.76;87.54;103520.97;4994928;28;101395;-36
2022/01/22 05:29:20;;;;;;;8.13;0.97;;;;;;;5.88;87.54;103550.56;4995924;28;96445;-35
2022/01/22 05:37:00;;;;;;;0.75;0.30;;;;;;;5.90;87.32;103539.81;4996348;28;97319;-36
2022/01/22 05:39:28;;;;;;;0.35;0.20;;;;;;;5.79;87.38;103520.97;4996713;28;96452;-36
2022/01/22 05:41:54;;;;;;;0.30;0.30;;;;;;;5.90;87.34;103535.34;4996280;28;96752;-36
2022/01/22 05:44:19;;;;;;;4.18;0.52;;;;;;;5.88;87.05;103539.81;4995695;28;97568;-36
2022/01/22 05:46:45;;;;;;;0.88;0.32;;;;;;;5.86;87.00;103536.22;4996016;28;97306;-36
2022/01/22 05:49:10;;;;;;;1.35;0.63;;;;;;;5.92;86.95;103546.09;4995357;28;117231;-36
2022/01/22 05:51:38;;;;;;;0.63;0.63;;;;;;;5.80;86.84;103524.56;4996364;28;96865;-36
2022/01/22 05:59:40;;;;;;;0.80;0.43;;;;;;;5.83;86.82;103535.31;4996222;28;96824;-36
2022/01/22 06:02:10;;;;;;;2.50;1.10;;;;;;;5.95;86.83;103562.28;4994664;28;96906;-36
2022/01/22 06:04:36;;;;;;;0.40;0.25;;;;;;;5.83;86.91;103546.97;4995541;28;102009;-36
2022/01/22 06:07:03;;;;;;;0.10;0.10;;;;;;;5.79;86.76;103537.09;4995636;28;97828;-36
2022/01/22 06:09:31;;;;;;;1.75;0.38;;;;;;;5.97;86.57;103575.75;4995481;28;96612;-36
2022/01/22 06:12:03;;;;;;;0.38;0.38;;;;;;;5.95;86.67;103567.66;4995866;28;96659;-36
2022/01/22 06:14:28;;;;;;;0.32;0.32;;;;;;;5.97;86.90;103571.25;4995862;28;97917;-36
2022/01/22 06:16:54;;;;;;;0.63;0.50;;;;;;;5.96;86.88;103574.84;4995615;28;97513;-36
2022/01/22 06:19:19;;;;;;;0.90;0.55;;;;;;;5.89;86.53;103564.94;4994354;28;96693;-36
2022/01/22 06:21:44;;;;;;;2.33;1.33;;;;;;;5.89;86.67;103559.56;4995395;28;96857;-36
2022/01/22 06:24:12;;;;;;;1.52;0.50;;;;;;;5.94;86.91;103584.72;4995433;28;98162;-36
2022/01/22 06:26:38;;;;;;;7.53;0.68;;;;;;;6.00;86.80;103594.56;4995833;28;97805;-36
2022/01/22 06:29:04;;;;;;;4.85;0.95;;;;;;;5.91;86.81;103572.13;4994143;28;96679;-36
2022/01/22 06:31:30;;;;;;;1.70;0.55;;;;;;;5.99;87.25;103582.03;4995558;28;96694;-36
2022/01/22 06:33:55;;;;;;;0.50;0.47;;;;;;;5.99;86.93;103582.03;4994774;28;97454;-36
2022/01/22 06:36:20;;;;;;;0.60;0.40;;;;;;;5.86;87.02;103555.03;4995054;28;99613;-36
2022/01/22 06:38:46;;;;;;;1.45;0.85;;;;;;;5.87;87.11;103554.16;4995623;28;96740;-36
2022/01/22 06:43:55;;;;;;;2.33;1.20;;;;;;;6.00;87.13;103597.25;4995388;28;96989;-36
2022/01/22 06:46:20;;;;;;;1.35;0.88;;;;;;;5.88;87.13;103577.47;4995115;28;97357;-36
2022/01/22 06:48:45;;;;;;;0.63;0.63;;;;;;;5.94;87.44;103582.91;4994146;28;117288;-36
2022/01/22 06:51:21;;;;;;;1.20;0.88;;;;;;;5.92;87.43;103573.91;4995612;28;96951;-36
2022/01/22 06:53:48;;;;;;;2.08;1.20;;;;;;;6.00;87.20;103583.81;4993443;28;99519;-36
2022/01/22 06:56:19;;;;;;;1.75;0.77;;;;;;;5.97;87.43;103582.00;4993551;28;100815;-36
2022/01/22 06:58:45;;;;;;;1.55;0.90;;;;;;;5.97;87.65;103587.41;4994608;28;96638;-36
2022/01/22 07:01:10;;;;;;;7.75;1.77;;;;;;;5.91;87.75;103574.81;4994309;28;96815;-36
2022/01/22 07:03:35;;;;;;;0.95;0.77;;;;;;;5.95;87.96;103590.06;4993942;28;125761;-36
2022/01/22 07:06:02;;;;;;;3.03;1.42;;;;;;;5.90;88.01;103575.69;4994806;28;100627;-36
2022/01/22 07:08:27;;;;;;;1.25;1.15;;;;;;;6.02;87.67;103603.53;4995068;28;96464;-36
2022/01/22 07:10:53;;;;;;;1.33;1.08;;;;;;;6.03;87.57;103606.25;4995529;28;96785;-36
2022/01/22 07:13:18;;;;;;;3.60;1.65;;;;;;;5.97;87.78;103594.56;4994443;28;110236;-36
2022/01/22 07:15:43;;;;;;;1.92;1.10;;;;;;;6.00;87.80;103598.16;4995191;28;97812;-36
2022/01/22 07:18:12;;;;;;;8.90;0.88;;;;;;;6.05;87.54;103606.22;4994959;28;96560;-36
2022/01/22 07:20:39;;;;;;;3.28;1.55;;;;;;;6.06;87.54;103602.66;4993453;28;96797;-36
2022/01/22 07:23:16;;;;;;;1.38;0.95;;;;;;;5.91;87.70;103579.25;4994108;28;97988;-36
2022/01/22 07:25:43;;;;;;;4.82;1.08;;;;;;;5.95;87.50;103583.78;4994766;28;97744;-36
2022/01/22 07:28:08;;;;;;;2.10;1.10;;;;;;;5.89;87.67;103573.91;4993496;28;96590;-36
2022/01/22 07:30:34;;;;;;;6.22;1.17;;;;;;;5.99;87.54;103587.41;4994783;28;96738;-36
2022/01/22 07:32:59;;;;;;;4.93;1.60;;;;;;;5.99;87.66;103582.03;4994607;28;97903;-36
2022/01/22 07:35:25;;;;;;;2.30;1.05;;;;;;;6.04;87.43;103593.69;4994507;28;97772;-36
2022/01/22 07:37:50;;;;;;;1.60;0.95;;;;;;;5.89;87.28;103565.84;4994726;28;96547;-36
2022/01/22 07:40:16;;;;;;;4.47;1.15;;;;;;;5.99;87.70;103579.34;4994450;28;108140;-36
2022/01/22 07:42:41;;;;;;;2.45;0.95;;;;;;;6.04;87.44;103583.81;4994444;28;98032;-36
2022/01/22 07:45:08;;;;;;;2.28;1.10;;;;;;;6.11;87.45;103598.19;4994177;28;99191;-36
2022/01/22 07:47:34;;;;;;;3.55;1.80;;;;;;;6.10;87.40;103596.38;4992738;28;96586;-36
2022/01/22 07:50:00;;;;;;;4.28;1.42;;;;;;;6.09;87.24;103591.91;4994344;28;96812;-36
2022/01/22 07:52:26;;;;;;;1.80;0.80;;;;;;;6.10;87.51;103599.06;4992814;28;100906;-36
2022/01/22 07:54:51;;;;;;;1.25;0.88;;;;;;;6.10;87.57;103581.16;4994310;28;97753;-36
2022/01/22 07:57:17;;;;;;;2.50;1.33;;;;;;;5.90;87.49;103548.78;4994361;28;96531;-36
2022/01/22 07:59:42;;;;;;;1.95;1.35;;;;;;;6.01;87.47;103573.06;4996991;28;117144;-36
2022/01/22 08:02:08;;;;;;;3.35;1.17;;;;;;;6.12;87.68;103587.41;4996751;28;112515;-36
2022/01/22 08:04:33;;;;;;;1.92;1.10;;;;;;;5.93;87.69;103542.50;4997673;28;112562;-36
2022/01/22 08:07:01;;;;;;;1.88;1.30;;;;;;;5.88;87.22;103534.44;4998257;28;96636;-36
2022/01/22 08:09:26;;;;;;;1.38;0.95;;;;;;;6.04;87.31;103561.41;4996400;28;96830;-36
2022/01/22 08:11:51;;;;;;;1.90;1.25;;;;;;;6.07;87.38;103572.16;4996325;28;122501;-36
2022/01/22 08:14:16;;;;;;;2.90;1.25;;;;;;;6.16;87.13;103577.56;4997446;28;97775;-36
2022/01/22 08:16:44;;;;;;;3.72;1.23;;;;;;;6.08;87.27;103558.72;4997877;28;96456;-36
2022/01/22 08:19:09;;;;;;;6.10;1.48;;;;;;;6.18;87.16;103575.78;4996184;28;96865;-36
2022/01/22 08:21:34;;;;;;;3.13;1.05;;;;;;;6.20;87.29;103581.13;4995599;28;108825;-36
2022/01/22 08:24:00;;;;;;;3.92;1.30;;;;;;;6.21;87.24;103582.94;4996333;28;125282;-36
2022/01/22 08:26:30;;;;;;;2.17;1.17;;;;;;;6.12;87.41;103567.69;4997178;28;102633;-36
2022/01/22 08:29:00;;;;;;;4.90;2.20;;;;;;;6.24;87.23;103586.53;4997985;28;96584;-36
2022/01/22 08:36:41;;;;;;;3.53;1.27;;;;;;;6.21;87.42;103586.53;4997458;28;96535;-36
2022/01/22 08:39:07;;;;;;;8.88;2.05;;;;;;;6.26;87.45;103597.31;4995558;28;96735;-36
2022/01/22 08:41:33;;;;;;;2.67;1.27;;;;;;;6.24;87.43;103597.28;4997096;28;97848;-36
2022/01/22 08:44:00;;;;;;;3.92;1.55;;;;;;;6.29;87.22;103602.69;4995673;28;100865;-36
2022/01/22 08:46:26;;;;;;;1.77;1.17;;;;;;;6.22;87.12;103592.81;4997382;28;96641;-36
2022/01/22 08:48:52;;;;;;;2.20;1.13;;;;;;;6.17;87.40;103587.41;4995741;28;96788;-36
2022/01/22 08:51:17;;;;;;;2.90;1.38;;;;;;;6.08;87.27;103568.59;4996878;28;98017;-36
2022/01/22 08:53:43;;;;;;;5.88;1.83;;;;;;;6.14;87.43;103574.84;4996834;28;99056;-36
2022/01/22 08:56:09;;;;;;;8.70;1.52;;;;;;;6.27;87.48;103601.78;4997181;28;96518;-36
2022/01/22 08:58:35;;;;;;;4.25;1.20;;;;;;;6.29;86.91;103606.28;4996598;28;96775;-36
2022/01/22 09:01:00;;;;;;;3.15;1.75;;;;;;;6.21;87.29;103586.53;4993933;28;101202;-36
2022/01/22 09:03:26;;;;;;;2.35;1.52;;;;;;;6.30;87.10;103600.00;4996402;28;99471;-36
2022/01/22 09:05:53;;;;;;;2.35;1.63;;;;;;;6.20;87.40;103594.59;4997050;28;96520;-36
2022/01/22 09:08:20;;;;;;;3.15;1.83;;;;;;;6.21;86.94;103596.41;4993920;28;96802;-36
2022/01/22 09:10:46;;;;;;;2.63;1.50;;;;;;;6.31;87.25;103614.34;4995058;28;100789;-36
2022/01/22 09:13:12;;;;;;;3.60;1.40;;;;;;;6.28;87.16;103606.28;4996675;28;97424;-36
2022/01/22 09:15:38;;;;;;;5.30;2.03;;;;;;;6.33;87.29;103612.56;4996972;28;96786;-36
2022/01/22 09:18:05;;;;;;;4.90;2.22;;;;;;;6.39;87.01;103626.03;4996806;28;96892;-36
2022/01/22 09:23:06;;;;;;;2.92;1.48;;;;;;;6.35;87.13;103621.53;4993760;28;97805;-36
2022/01/22 09:25:32;;;;;;;3.92;2.17;;;;;;;6.40;87.28;103632.31;4994684;28;96574;-36
2022/01/22 09:27:57;;;;;;;4.93;1.85;;;;;;;6.29;86.95;103622.44;4996612;28;96728;-36
2022/01/22 09:30:25;;;;;;;2.83;1.67;;;;;;;6.30;87.01;103618.84;4996097;28;102660;-36
2022/01/22 09:32:50;;;;;;;6.75;1.80;;;;;;;6.37;87.23;103625.13;4994859;28;101110;-36
2022/01/22 09:35:16;;;;;;;5.05;1.95;;;;;;;6.32;87.32;103618.84;4995010;28;96537;-37
2022/01/22 09:37:42;;;;;;;2.05;1.63;;;;;;;6.45;87.01;103649.34;4996542;28;96861;-36
2022/01/22 09:40:08;;;;;;;3.45;1.65;;;;;;;6.43;87.30;103651.16;4994756;28;100857;-36
2022/01/22 09:42:34;;;;;;;3.00;1.98;;;;;;;6.33;87.08;103629.59;4978458;28;102100;-36
2022/01/22 09:45:01;;;;;;;3.20;1.83;;;;;;;6.45;87.23;103652.94;4996556;28;96409;-36
2022/01/22 09:47:27;;;;;;;2.92;1.63;;;;;;;6.40;87.25;103649.34;4994905;28;96801;-36
2022/01/22 09:49:52;;;;;;;3.50;1.73;;;;;;;6.41;87.26;103647.56;4993886;28;100935;-36
2022/01/22 09:52:18;;;;;;;4.47;2.28;;;;;;;6.40;87.31;103651.16;4995937;28;97835;-36
2022/01/22 09:54:44;;;;;;;4.95;2.13;;;;;;;6.42;87.14;103654.75;4994741;28;96614;-36
2022/01/22 09:57:10;;;;;;;3.80;1.63;;;;;;;6.36;87.15;103643.09;4995602;28;105425;-36
2022/01/22 09:59:35;;;;;;;5.25;2.20;;;;;;;6.49;87.24;103676.28;4994095;28;99195;-36
2022/01/22 10:02:11;;;;;;;7.88;1.70;;;;;;;6.44;87.21;103670.00;4994875;28;99169;-36
2022/01/22 10:04:40;;;;;;;4.00;2.20;;;;;;;6.32;87.28;103635.00;4994595;28;96714;-36
2022/01/22 10:07:17;;;;;;;9.45;1.80;;;;;;;6.50;87.25;103669.09;4994901;28;96985;-36
2022/01/22 10:09:56;;;;;;;10.52;2.28;;;;;;;6.31;87.09;103635.88;4995850;28;97896;-36
2022/01/22 10:12:22;;;;;;;2.55;1.85;;;;;;;6.42;86.99;103649.38;4995465;28;99171;-36
2022/01/22 10:15:04;;;;;;;5.07;2.22;;;;;;;6.56;87.04;103687.97;4995420;28;96453;-36
2022/01/22 10:17:43;;;;;;;2.97;1.88;;;;;;;6.52;87.37;103678.09;4994267;28;96849;-36
2022/01/22 10:20:20;;;;;;;2.83;2.10;;;;;;;6.54;87.20;103684.38;4994960;28;99389;-36
2022/01/22 10:22:45;;;;;;;3.97;2.03;;;;;;;6.55;87.06;103678.09;4995398;28;103913;-36
2022/01/22 10:25:23;;;;;;;7.18;2.40;;;;;;;6.43;87.26;103664.63;4995820;28;96496;-37
2022/01/22 10:28:05;;;;;;;12.80;2.00;;;;;;;6.52;87.21;103678.09;4994332;28;97011;-36
2022/01/22 10:30:40;;;;;;;3.70;1.85;;;;;;;6.56;86.88;103672.72;4977439;28;101070;-36
2022/01/22 10:33:21;;;;;;;4.20;1.88;;;;;;;6.46;87.11;103649.38;4994201;28;101006;-36
2022/01/22 10:35:47;;;;;;;2.73;1.40;;;;;;;6.48;87.02;103655.63;4994171;28;96922;-36
2022/01/22 10:38:13;;;;;;;4.45;1.92;;;;;;;6.53;86.74;103661.94;4994140;28;96802;-36
2022/01/22 10:40:40;;;;;;;2.08;1.48;;;;;;;6.48;86.95;103644.88;4994674;28;98002;-36
2022/01/22 10:45:59;;;;;;;3.42;2.08;;;;;;;6.68;86.83;103679.91;4994799;28;96585;-36
2022/01/22 10:48:25;;;;;;;5.35;2.88;;;;;;;6.54;86.79;103655.66;4993935;28;96777;-36
2022/01/22 10:51:10;;;;;;;8.32;2.63;;;;;;;6.69;86.94;103679.00;4995140;28;97847;-36
2022/01/22 10:53:41;;;;;;;2.22;1.58;;;;;;;6.69;86.63;103687.06;4994823;28;99340;-36
2022/01/22 10:56:08;;;;;;;2.92;1.92;;;;;;;6.71;86.56;103677.19;4993920;28;96467;-36
2022/01/22 10:58:34;;;;;;;6.05;2.38;;;;;;;6.62;86.59;103652.06;4995016;28;96833;-36
2022/01/22 11:01:04;;;;;;;8.02;2.83;;;;;;;6.69;86.24;103675.41;4993920;28;99010;-36
2022/01/22 11:03:31;;;;;;;5.70;2.80;;;;;;;6.74;86.70;103669.09;4993344;28;101240;-36
2022/01/22 11:05:57;;;;;;;3.80;2.05;;;;;;;6.62;86.27;103654.75;4994745;28;96569;-36
2022/01/22 11:08:23;;;;;;;5.28;2.50;;;;;;;6.65;86.63;103652.97;4993782;28;96841;-36
2022/01/22 11:10:49;;;;;;;4.70;1.83;;;;;;;6.65;86.55;103652.06;4994711;28;98038;-36
2022/01/22 11:13:15;;;;;;;7.88;3.05;;;;;;;6.76;86.32;103680.78;4993281;28;98917;-36
2022/01/22 11:15:41;;;;;;;5.40;3.13;;;;;;;6.75;86.42;103665.53;4995204;28;96529;-36
2022/01/22 11:18:07;;;;;;;7.13;3.13;;;;;;;6.79;86.55;103670.03;4994997;28;96688;-36
2022/01/22 11:20:33;;;;;;;5.57;3.28;;;;;;;6.80;86.45;103666.44;4993227;28;100917;-36
2022/01/22 11:22:59;;;;;;;3.83;2.75;;;;;;;6.69;86.20;103638.59;4993635;28;100676;-36
2022/01/22 11:25:26;;;;;;;5.13;2.33;;;;;;;6.80;86.50;103655.66;4993474;28;96750;-36
2022/01/22 11:27:52;;;;;;;4.05;2.65;;;;;;;6.71;86.62;103644.00;4993355;28;96789;-36
2022/01/22 11:30:19;;;;;;;5.57;2.65;;;;;;;6.62;86.71;103636.78;4994017;28;97914;-36
2022/01/22 11:33:12;;;;;;;10.77;2.97;;;;;;;6.86;86.32;103678.09;4992148;28;100878;-36
2022/01/22 11:35:44;;;;;;;7.00;2.83;;;;;;;6.88;86.51;103681.69;4993494;28;96841;-37
2022/01/22 11:38:26;;;;;;;4.70;2.85;;;;;;;6.85;86.38;103679.00;4994696;28;96803;-36
2022/01/22 11:41:19;;;;;;;5.40;3.40;;;;;;;6.89;86.34;103678.09;4994491;28;98107;-36
2022/01/22 11:44:05;;;;;;;4.32;2.60;;;;;;;6.63;86.31;103629.63;4993060;28;99694;-36
2022/01/22 11:46:36;;;;;;;6.65;2.95;;;;;;;6.88;86.38;103677.19;4992995;28;96840;-37
2022/01/22 11:49:08;;;;;;;5.18;3.47;;;;;;;6.88;86.33;103685.28;4993654;28;96729;-36
2022/01/22 11:51:34;;;;;;;12.90;4.05;;;;;;;6.69;86.05;103645.78;4994297;28;97971;-36
2022/01/22 11:54:00;;;;;;;4.90;3.20;;;;;;;6.78;86.16;103656.56;4992806;28;98778;-36
2022/01/22 11:56:41;;;;;;;4.22;2.60;;;;;;;6.85;85.93;103671.81;4994471;28;96706;-36
2022/01/22 11:59:21;;;;;;;3.97;2.50;;;;;;;6.93;86.43;103678.09;4992456;28;96777;-36
2022/01/22 12:04:14;;;;;;;6.10;3.63;;;;;;;6.92;85.99;103673.59;4994073;28;98027;-36
2022/01/22 12:07:01;;;;;;;8.43;4.30;;;;;;;6.90;85.97;103675.41;4994596;28;96567;-36
2022/01/22 12:15:23;;;;;;;11.85;3.78;;;;;;;6.66;85.55;103629.63;4993532;28;96979;-36
2022/01/22 12:18:11;;;;;;;5.80;3.45;;;;;;;6.88;85.93;103670.91;4992717;28;96649;-36
2022/01/22 12:23:16;;;;;;;6.30;3.58;;;;;;;6.80;85.98;103677.22;4993429;28;97700;-36
2022/01/22 12:25:41;;;;;;;5.88;3.75;;;;;;;6.75;86.01;103660.16;4992443;28;101054;-36
2022/01/22 12:28:12;;;;;;;6.95;3.80;;;;;;;6.74;85.96;103650.25;4992574;28;96574;-36
2022/01/22 12:30:39;;;;;;;8.95;5.03;;;;;;;6.73;85.86;103648.47;4976362;28;96954;-36
2022/01/22 12:33:13;;;;;;;6.00;2.83;;;;;;;6.58;85.72;103622.44;4992240;28;100736;-36
2022/01/22 12:35:46;;;;;;;8.05;4.60;;;;;;;6.63;85.96;103638.59;4992203;28;101000;-36
2022/01/22 12:38:18;;;;;;;9.98;3.63;;;;;;;6.70;86.04;103644.91;4992715;28;96655;-36
2022/01/22 12:40:45;;;;;;;8.02;4.18;;;;;;;6.75;86.13;103662.84;4992836;28;96808;-36
2022/01/22 12:43:14;;;;;;;5.45;3.28;;;;;;;6.66;85.91;103632.31;4993506;28;100888;-36
2022/01/22 12:45:44;;;;;;;8.50;3.67;;;;;;;6.78;85.99;103659.25;4996780;28;97928;-36
2022/01/22 12:48:12;;;;;;;13.85;4.57;;;;;;;6.76;85.80;103656.53;4995295;28;96751;-36
2022/01/22 12:50:37;;;;;;;8.38;3.95;;;;;;;6.65;85.95;103639.50;4995600;28;96917;-36
2022/01/22 12:53:15;;;;;;;6.15;4.35;;;;;;;6.65;86.09;103636.81;4996927;28;97961;-36
2022/01/22 12:58:51;;;;;;;6.20;4.18;;;;;;;6.64;85.87;103647.56;4995099;28;96686;-36
2022/01/22 13:01:27;;;;;;;10.18;4.55;;;;;;;6.64;85.92;103644.88;4993216;28;98267;-36
2022/01/22 13:03:55;;;;;;;10.65;4.07;;;;;;;6.63;86.11;103648.50;4995235;28;101022;-36
2022/01/22 13:06:24;;;;;;;9.63;4.55;;;;;;;6.64;86.07;103650.28;4995509;28;101466;-36
2022/01/22 13:08:54;;;;;;;6.18;3.72;;;;;;;6.62;85.59;103652.94;4995710;28;97418;-36
2022/01/22 13:11:24;;;;;;;7.40;4.25;;;;;;;6.70;85.61;103670.03;4995582;28;96781;-36
2022/01/22 13:13:50;;;;;;;10.15;5.00;;;;;;;6.74;85.89;103679.00;4994704;28;101210;-36
2022/01/22 13:16:17;;;;;;;8.57;4.05;;;;;;;6.70;85.93;103669.13;4996628;28;97716;-36
2022/01/22 13:18:50;;;;;;;12.55;4.50;;;;;;;6.71;85.88;103677.19;4996728;28;96574;-36
2022/01/22 13:21:17;;;;;;;7.72;3.25;;;;;;;6.70;85.20;103680.81;4995466;28;96651;-36